Time;durP1;ratioP1;P1;durP2;ratioP2;P2;SDS_P1;SDS_P2;PMS_P1;PMS_P2;Temp;Humidity;BMP_temperature;BMP_pressure;BME280_temperature;BME280_humidity;BME280_pressure;Samples;Min_cycle;Max_cycle;Signal;HPM_P1;HPM_P2
2023/10/21 00:01:28;;;;;;;9.57;1.85;;;11.80;99.90;;;;;;5007033;28;20061;-66
2023/10/21 00:03:53;;;;;;;0.10;0.10;;;11.80;99.90;;;;;;5004474;28;20466;-66
2023/10/21 00:06:19;;;;;;;0.10;0.10;;;11.80;99.90;;;;;;5003222;28;20410;-65
2023/10/21 00:08:44;;;;;;;0.45;0.45;;;11.80;99.90;;;;;;5004028;28;20045;-66
2023/10/21 00:11:12;;;;;;;0.10;0.10;;;11.80;99.90;;;;;;5000241;28;20089;-66
2023/10/21 00:13:38;;;;;;;0.10;0.10;;;11.80;99.90;;;;;;5004751;28;20573;-66
2023/10/21 00:16:04;;;;;;;0.10;0.10;;;11.70;99.90;;;;;;5004049;28;20136;-66
2023/10/21 00:18:29;;;;;;;0.47;0.47;;;11.80;99.90;;;;;;5021445;28;20061;-66
2023/10/21 00:20:55;;;;;;;0.20;0.20;;;11.80;99.90;;;;;;4999434;28;20042;-66
2023/10/21 00:23:24;;;;;;;0.20;0.20;;;11.80;99.90;;;;;;5004668;28;20836;-66
2023/10/21 00:25:50;;;;;;;0.10;0.10;;;11.70;99.90;;;;;;5005755;28;20437;-66
2023/10/21 00:28:15;;;;;;;0.10;0.10;;;11.80;99.90;;;;;;5000038;28;20092;-66
2023/10/21 00:30:45;;;;;;;0.10;0.10;;;11.80;99.90;;;;;;4996774;28;20202;-66
2023/10/21 00:33:11;;;;;;;0.10;0.10;;;11.80;99.90;;;;;;4999537;28;20054;-66
2023/10/21 00:35:37;;;;;;;0.10;0.10;;;11.80;99.90;;;;;;4999588;28;20057;-66
2023/10/21 00:38:03;;;;;;;0.55;0.55;;;11.80;99.90;;;;;;5001906;28;20050;-66
2023/10/21 00:40:28;;;;;;;0.43;0.43;;;11.80;99.90;;;;;;4997631;28;20038;-66
2023/10/21 00:42:54;;;;;;;0.10;0.10;;;11.80;99.90;;;;;;5008538;28;20042;-66
2023/10/21 00:45:19;;;;;;;0.43;0.43;;;11.70;99.90;;;;;;5002393;28;20048;-66
2023/10/21 00:47:45;;;;;;;0.57;0.45;;;11.80;99.90;;;;;;4998295;28;20062;-66
2023/10/21 00:50:11;;;;;;;6.15;0.82;;;11.80;99.90;;;;;;4991062;28;20096;-66
2023/10/21 00:52:48;;;;;;;0.00;0.00;;;11.70;99.90;;;;;;5005114;28;20049;-66
2023/10/21 00:55:15;;;;;;;0.20;0.20;;;11.70;99.90;;;;;;5001663;28;20050;-66
2023/10/21 00:57:40;;;;;;;0.10;0.10;;;11.70;99.90;;;;;;4997028;28;20058;-66
2023/10/21 01:00:13;;;;;;;0.10;0.10;;;11.70;99.90;;;;;;5002359;28;20050;-66
2023/10/21 01:02:42;;;;;;;0.10;0.10;;;11.70;99.90;;;;;;4997705;28;20093;-66
2023/10/21 01:05:09;;;;;;;0.32;0.32;;;11.70;99.90;;;;;;4996831;28;20453;-66
2023/10/21 01:07:34;;;;;;;0.10;0.10;;;11.80;99.90;;;;;;5004236;28;20042;-66
2023/10/21 01:10:04;;;;;;;0.10;0.10;;;11.70;99.90;;;;;;5004644;28;20046;-66
2023/10/21 01:12:31;;;;;;;0.10;0.10;;;11.70;99.90;;;;;;5001461;28;20041;-66
2023/10/21 01:14:57;;;;;;;0.43;0.43;;;11.70;99.90;;;;;;5005471;28;20485;-66
2023/10/21 01:17:22;;;;;;;0.20;0.20;;;11.60;99.90;;;;;;5001368;28;20046;-66
2023/10/21 01:19:48;;;;;;;0.45;0.45;;;11.60;99.90;;;;;;5003075;28;20038;-66
2023/10/21 01:22:14;;;;;;;0.10;0.10;;;11.50;99.90;;;;;;5002634;28;20393;-66
2023/10/21 01:24:40;;;;;;;0.10;0.10;;;11.50;99.90;;;;;;5001758;28;20034;-66
2023/10/21 01:27:05;;;;;;;0.00;0.00;;;11.50;99.90;;;;;;5004427;28;20041;-66
2023/10/21 01:29:31;;;;;;;0.10;0.10;;;11.50;99.90;;;;;;5002201;28;20048;-66
2023/10/21 01:31:56;;;;;;;0.10;0.10;;;11.50;99.90;;;;;;5009313;28;20469;-66
2023/10/21 01:34:22;;;;;;;0.10;0.10;;;11.50;99.90;;;;;;5001023;28;20034;-66
2023/10/21 01:36:47;;;;;;;0.00;0.00;;;11.40;99.90;;;;;;5006559;28;20379;-66
2023/10/21 01:39:14;;;;;;;0.00;0.00;;;11.30;99.90;;;;;;4999438;28;20064;-66
2023/10/21 01:41:39;;;;;;;0.30;0.30;;;11.30;99.90;;;;;;4996379;28;20038;-66
2023/10/21 01:44:05;;;;;;;0.05;0.05;;;11.30;99.90;;;;;;5004178;28;20096;-66
2023/10/21 01:46:31;;;;;;;0.20;0.20;;;11.30;99.90;;;;;;4998920;28;20490;-66
2023/10/21 01:48:56;;;;;;;0.00;0.00;;;11.30;99.90;;;;;;5003080;28;20451;-66
2023/10/21 01:51:22;;;;;;;0.28;0.28;;;11.30;99.90;;;;;;5006682;28;20050;-66
2023/10/21 01:53:48;;;;;;;0.10;0.10;;;11.30;99.90;;;;;;4999773;28;20049;-66
2023/10/21 01:56:14;;;;;;;0.10;0.10;;;11.30;99.90;;;;;;4999299;28;20064;-66
2023/10/21 01:58:39;;;;;;;0.10;0.10;;;11.30;99.90;;;;;;4999957;28;20038;-66
2023/10/21 02:01:11;;;;;;;0.10;0.10;;;11.30;99.90;;;;;;5008534;28;20076;-66
2023/10/21 02:03:37;;;;;;;0.10;0.10;;;11.30;99.90;;;;;;5008491;28;20042;-66
2023/10/21 02:06:06;;;;;;;0.10;0.10;;;11.40;99.90;;;;;;5007340;28;20588;-66
2023/10/21 02:08:32;;;;;;;0.57;0.57;;;11.40;99.90;;;;;;5005668;28;20050;-66
2023/10/21 02:10:58;;;;;;;0.00;0.00;;;11.40;99.90;;;;;;5002767;28;20042;-66
2023/10/21 02:13:24;;;;;;;1.30;0.68;;;11.40;99.90;;;;;;5007824;28;20458;-66
2023/10/21 02:15:53;;;;;;;0.00;0.00;;;11.40;99.90;;;;;;5003763;28;20054;-66
2023/10/21 02:18:18;;;;;;;1.02;0.45;;;11.40;99.90;;;;;;5008702;28;20050;-66
2023/10/21 02:20:44;;;;;;;0.32;0.32;;;11.40;99.90;;;;;;5010291;28;20053;-66
2023/10/21 02:23:10;;;;;;;0.05;0.05;;;11.30;99.90;;;;;;4999851;28;20034;-66
2023/10/21 02:25:35;;;;;;;0.25;0.25;;;11.30;99.90;;;;;;5009110;28;20063;-66
2023/10/21 02:28:01;;;;;;;0.10;0.10;;;11.30;99.90;;;;;;5000443;28;20111;-66
2023/10/21 02:30:27;;;;;;;0.10;0.10;;;11.30;99.90;;;;;;5007717;28;20046;-65
2023/10/21 02:32:53;;;;;;;0.73;0.73;;;11.30;99.90;;;;;;5003149;28;20081;-66
2023/10/21 02:35:18;;;;;;;0.15;0.15;;;11.30;99.90;;;;;;5006203;28;20746;-66
2023/10/21 02:37:45;;;;;;;0.60;0.60;;;11.30;99.90;;;;;;5009654;28;20046;-66
2023/10/21 02:40:20;;;;;;;0.63;0.63;;;11.30;99.90;;;;;;4996322;28;20406;-66
2023/10/21 02:42:46;;;;;;;0.00;0.00;;;11.30;99.90;;;;;;5006892;28;20045;-66
2023/10/21 02:45:11;;;;;;;2.90;0.85;;;11.40;99.90;;;;;;5003756;28;20458;-66
2023/10/21 02:47:37;;;;;;;0.10;0.10;;;11.40;99.90;;;;;;5001288;28;20038;-66
2023/10/21 02:50:04;;;;;;;0.30;0.30;;;11.40;99.90;;;;;;5006611;28;20394;-65
2023/10/21 02:52:30;;;;;;;0.30;0.30;;;11.40;99.90;;;;;;5011833;28;20545;-66
2023/10/21 02:54:55;;;;;;;0.10;0.10;;;11.40;99.90;;;;;;4995474;28;20042;-66
2023/10/21 02:57:21;;;;;;;0.05;0.05;;;11.30;99.90;;;;;;5005774;28;20058;-66
2023/10/21 02:59:46;;;;;;;0.10;0.10;;;11.40;99.90;;;;;;5005296;28;20070;-66
2023/10/21 03:02:13;;;;;;;0.10;0.10;;;11.40;99.90;;;;;;5002404;28;20042;-66
2023/10/21 03:04:42;;;;;;;0.10;0.10;;;11.40;99.90;;;;;;5002844;28;20129;-66
2023/10/21 03:07:07;;;;;;;0.08;0.08;;;11.40;99.90;;;;;;5010526;28;20061;-66
2023/10/21 03:09:33;;;;;;;0.10;0.10;;;11.40;99.90;;;;;;4995688;28;20050;-66
2023/10/21 03:11:58;;;;;;;0.10;0.10;;;11.40;99.90;;;;;;5004708;28;20050;-68
2023/10/21 03:14:24;;;;;;;0.17;0.17;;;11.30;99.90;;;;;;5007077;28;20042;-66
2023/10/21 03:16:50;;;;;;;0.10;0.10;;;11.40;99.90;;;;;;5009601;28;20046;-66
2023/10/21 03:19:15;;;;;;;0.10;0.10;;;11.40;99.90;;;;;;5002398;28;20123;-66
2023/10/21 03:21:41;;;;;;;0.20;0.20;;;11.40;99.90;;;;;;5006912;28;20069;-66
2023/10/21 03:24:07;;;;;;;0.10;0.10;;;11.40;99.90;;;;;;5004954;28;20497;-66
2023/10/21 03:26:32;;;;;;;0.10;0.10;;;11.40;99.90;;;;;;5003400;28;20038;-66
2023/10/21 03:28:58;;;;;;;0.35;0.35;;;11.40;99.90;;;;;;5002949;28;20065;-66
2023/10/21 03:31:23;;;;;;;0.20;0.20;;;11.40;99.90;;;;;;4999876;28;20084;-66
2023/10/21 03:33:49;;;;;;;0.10;0.10;;;11.40;99.90;;;;;;5004153;28;20176;-66
2023/10/21 03:36:15;;;;;;;0.03;0.03;;;11.40;99.90;;;;;;5000446;28;20046;-66
2023/10/21 03:38:42;;;;;;;0.10;0.10;;;11.40;99.90;;;;;;5009034;28;20053;-66
2023/10/21 03:41:12;;;;;;;0.10;0.10;;;11.40;99.90;;;;;;5005907;28;20124;-66
2023/10/21 03:43:37;;;;;;;0.00;0.00;;;11.40;99.90;;;;;;5000799;28;20045;-66
2023/10/21 03:46:08;;;;;;;0.50;0.50;;;11.40;99.90;;;;;;5000730;28;20056;-66
2023/10/21 03:48:35;;;;;;;0.10;0.10;;;11.30;99.90;;;;;;4996934;28;20507;-66
2023/10/21 03:51:05;;;;;;;0.00;0.00;;;11.40;99.90;;;;;;5003600;28;20057;-66
2023/10/21 03:53:32;;;;;;;0.30;0.30;;;11.30;99.90;;;;;;5000913;28;20047;-66
2023/10/21 03:55:59;;;;;;;0.00;0.00;;;11.30;99.90;;;;;;5009674;28;20038;-66
2023/10/21 03:58:25;;;;;;;0.08;0.08;;;11.30;99.90;;;;;;5008288;28;20061;-66
2023/10/21 04:00:50;;;;;;;0.10;0.10;;;11.20;99.90;;;;;;5004788;28;20498;-66
2023/10/21 04:03:16;;;;;;;0.10;0.10;;;11.30;99.90;;;;;;4993799;28;20405;-66
2023/10/21 04:05:42;;;;;;;0.00;0.00;;;11.30;99.90;;;;;;4999716;28;20041;-66
2023/10/21 04:08:08;;;;;;;0.20;0.20;;;11.20;99.90;;;;;;5000118;28;20049;-66
2023/10/21 04:10:33;;;;;;;0.32;0.32;;;11.20;99.90;;;;;;5017624;28;20433;-66
2023/10/21 04:13:01;;;;;;;0.10;0.10;;;11.20;99.90;;;;;;5002337;28;20422;-66
2023/10/21 04:15:27;;;;;;;0.05;0.05;;;11.20;99.90;;;;;;5000405;28;20546;-66
2023/10/21 04:17:52;;;;;;;0.10;0.10;;;11.20;99.90;;;;;;5000844;28;20061;-66
2023/10/21 04:20:18;;;;;;;0.10;0.10;;;11.20;99.90;;;;;;5015140;28;20054;-65
2023/10/21 04:22:44;;;;;;;2.08;1.08;;;11.10;99.90;;;;;;4998103;28;20101;-66
2023/10/21 04:25:11;;;;;;;0.20;0.20;;;11.20;99.90;;;;;;5005618;28;20048;-66
2023/10/21 04:27:36;;;;;;;0.10;0.10;;;11.10;99.90;;;;;;5004053;28;20125;-66
2023/10/21 04:30:03;;;;;;;0.00;0.00;;;11.10;99.90;;;;;;5009637;28;20128;-66
2023/10/21 04:32:29;;;;;;;0.17;0.17;;;11.10;99.90;;;;;;5006271;28;20390;-66
2023/10/21 04:34:56;;;;;;;0.40;0.30;;;11.10;99.90;;;;;;5002368;28;20056;-66
2023/10/21 04:37:21;;;;;;;0.10;0.10;;;11.10;99.90;;;;;;5001768;28;20077;-65
2023/10/21 04:39:47;;;;;;;0.30;0.30;;;11.10;99.90;;;;;;5023960;28;20081;-66
2023/10/21 04:42:13;;;;;;;0.63;0.63;;;11.10;99.90;;;;;;4999925;28;20096;-66
2023/10/21 04:44:38;;;;;;;0.00;0.00;;;11.10;99.90;;;;;;5004921;28;20042;-66
2023/10/21 04:47:04;;;;;;;0.10;0.10;;;11.00;99.90;;;;;;4998223;28;20123;-66
2023/10/21 04:49:30;;;;;;;0.10;0.10;;;11.10;99.90;;;;;;5007826;28;20124;-66
2023/10/21 04:51:56;;;;;;;0.10;0.10;;;11.00;99.90;;;;;;5006329;28;20128;-66
2023/10/21 04:54:21;;;;;;;0.10;0.10;;;11.00;99.90;;;;;;5001682;28;20117;-66
2023/10/21 04:56:47;;;;;;;0.10;0.10;;;11.00;99.90;;;;;;5001361;28;20080;-66
2023/10/21 04:59:13;;;;;;;0.13;0.13;;;11.00;99.90;;;;;;5007278;28;20050;-66
2023/10/21 05:01:38;;;;;;;0.10;0.10;;;11.00;99.90;;;;;;4997796;28;20038;-66
2023/10/21 05:04:04;;;;;;;0.10;0.10;;;11.00;99.90;;;;;;5000171;28;20073;-66
2023/10/21 05:06:30;;;;;;;0.10;0.10;;;11.00;99.90;;;;;;4999011;28;20062;-66
2023/10/21 05:08:55;;;;;;;0.10;0.10;;;11.00;99.90;;;;;;4997640;28;20394;-66
2023/10/21 05:11:21;;;;;;;0.00;0.00;;;10.90;99.90;;;;;;5008022;28;20043;-66
2023/10/21 05:13:46;;;;;;;0.10;0.10;;;11.00;99.90;;;;;;4996174;28;20042;-66
2023/10/21 05:16:12;;;;;;;0.43;0.43;;;10.90;99.90;;;;;;5004193;28;20138;-66
2023/10/21 05:18:38;;;;;;;0.17;0.17;;;10.90;99.90;;;;;;4995575;28;20483;-66
2023/10/21 05:21:07;;;;;;;0.00;0.00;;;10.90;99.90;;;;;;4998029;28;20556;-66
2023/10/21 05:23:33;;;;;;;0.10;0.10;;;10.90;99.90;;;;;;5000514;28;20133;-66
2023/10/21 05:25:59;;;;;;;0.17;0.17;;;10.90;99.90;;;;;;4999687;28;20053;-66
2023/10/21 05:28:25;;;;;;;0.20;0.20;;;10.90;99.90;;;;;;5002142;28;20058;-66
2023/10/21 05:30:50;;;;;;;0.10;0.10;;;10.90;99.90;;;;;;5004814;28;20589;-66
2023/10/21 05:33:16;;;;;;;0.20;0.20;;;10.90;99.90;;;;;;5008362;28;20042;-66
2023/10/21 05:35:41;;;;;;;0.10;0.10;;;10.90;99.90;;;;;;4999423;28;20041;-66
2023/10/21 05:38:07;;;;;;;0.00;0.00;;;10.90;99.90;;;;;;5010635;28;20129;-66
2023/10/21 05:40:33;;;;;;;0.10;0.10;;;10.90;99.90;;;;;;5008591;28;20065;-66
2023/10/21 05:42:58;;;;;;;0.10;0.10;;;10.90;99.90;;;;;;5004566;28;20041;-66
2023/10/21 05:45:24;;;;;;;0.00;0.00;;;10.90;99.90;;;;;;5007395;28;20037;-66
2023/10/21 05:47:49;;;;;;;0.10;0.10;;;10.90;99.90;;;;;;5003551;28;20049;-66
2023/10/21 05:50:19;;;;;;;0.05;0.05;;;10.80;99.90;;;;;;5004149;28;20420;-66
2023/10/21 05:52:45;;;;;;;0.00;0.00;;;10.80;99.90;;;;;;5009184;28;20050;-66
2023/10/21 05:55:11;;;;;;;0.10;0.10;;;10.80;99.90;;;;;;5007687;28;20049;-66
2023/10/21 05:57:36;;;;;;;0.10;0.10;;;10.80;99.90;;;;;;4997329;28;20049;-66
2023/10/21 06:00:05;;;;;;;0.43;0.43;;;10.80;99.90;;;;;;5007882;28;20049;-66
2023/10/21 06:02:31;;;;;;;0.10;0.10;;;10.80;99.90;;;;;;5007378;28;20042;-66
2023/10/21 06:04:57;;;;;;;0.00;0.00;;;10.90;99.90;;;;;;5003213;28;20051;-66
2023/10/21 06:07:23;;;;;;;0.10;0.10;;;10.80;99.90;;;;;;5006713;28;20053;-66
2023/10/21 06:09:48;;;;;;;1.52;1.25;;;10.80;99.90;;;;;;5007465;28;20042;-66
2023/10/21 06:12:14;;;;;;;0.13;0.13;;;10.80;99.90;;;;;;5002734;28;20185;-66
2023/10/21 06:14:39;;;;;;;0.10;0.10;;;10.80;99.90;;;;;;5005448;28;20041;-66
2023/10/21 06:17:05;;;;;;;0.65;0.65;;;10.90;99.90;;;;;;5008315;28;20461;-66
2023/10/21 06:19:31;;;;;;;1.02;1.00;;;10.80;99.90;;;;;;5008159;28;20045;-66
2023/10/21 06:21:56;;;;;;;0.10;0.10;;;10.80;99.90;;;;;;5012225;28;20076;-66
2023/10/21 06:24:22;;;;;;;0.10;0.10;;;10.80;99.90;;;;;;4998283;28;20050;-66
2023/10/21 06:26:47;;;;;;;0.25;0.25;;;10.80;99.90;;;;;;5007973;28;20058;-66
2023/10/21 06:29:13;;;;;;;0.00;0.00;;;10.80;99.90;;;;;;5003705;28;20414;-66
2023/10/21 06:31:39;;;;;;;0.00;0.00;;;10.80;99.90;;;;;;5001776;28;20057;-66
2023/10/21 06:34:05;;;;;;;0.10;0.10;;;10.80;99.90;;;;;;5006060;28;20502;-66
2023/10/21 06:36:31;;;;;;;0.10;0.10;;;10.80;99.90;;;;;;5004209;28;20046;-66
2023/10/21 06:38:57;;;;;;;0.38;0.38;;;10.80;99.90;;;;;;5006596;28;20118;-66
2023/10/21 06:41:23;;;;;;;0.15;0.15;;;10.80;99.90;;;;;;5001631;28;20053;-66
2023/10/21 06:43:49;;;;;;;0.10;0.10;;;10.80;99.90;;;;;;5011384;28;20050;-66
2023/10/21 06:46:15;;;;;;;0.68;0.68;;;10.80;99.90;;;;;;5006652;28;20049;-66
2023/10/21 06:48:41;;;;;;;0.30;0.30;;;10.80;99.90;;;;;;5001557;28;20042;-66
2023/10/21 06:51:07;;;;;;;0.10;0.10;;;10.80;99.90;;;;;;5003638;28;20057;-66
2023/10/21 06:53:32;;;;;;;0.10;0.10;;;10.80;99.90;;;;;;5009408;28;20042;-66
2023/10/21 06:55:58;;;;;;;0.00;0.00;;;10.90;99.90;;;;;;5005228;28;20046;-66
2023/10/21 06:58:26;;;;;;;0.10;0.10;;;10.90;99.90;;;;;;5007825;28;20073;-66
2023/10/21 07:00:52;;;;;;;0.30;0.30;;;11.00;99.90;;;;;;5025593;28;20056;-66
2023/10/21 07:03:18;;;;;;;0.15;0.15;;;11.10;99.90;;;;;;5007299;28;20037;-66
2023/10/21 07:05:45;;;;;;;0.10;0.10;;;11.20;99.90;;;;;;5014533;28;20394;-66
2023/10/21 07:08:11;;;;;;;0.55;0.55;;;11.30;99.90;;;;;;5009805;28;20046;-66
2023/10/21 07:10:38;;;;;;;6.13;2.45;;;11.30;99.90;;;;;;5010019;28;20049;-66
2023/10/21 07:13:04;;;;;;;0.40;0.40;;;11.40;99.90;;;;;;5009267;28;20042;-66
2023/10/21 07:15:33;;;;;;;0.68;0.68;;;11.50;99.90;;;;;;5007205;28;20042;-66
2023/10/21 07:17:59;;;;;;;0.10;0.10;;;11.50;99.90;;;;;;5003334;28;20042;-66
2023/10/21 07:20:27;;;;;;;0.10;0.10;;;11.50;99.90;;;;;;5005101;28;20330;-66
2023/10/21 07:22:54;;;;;;;0.10;0.10;;;11.60;99.90;;;;;;5000029;28;20045;-66
2023/10/21 07:25:19;;;;;;;0.35;0.30;;;11.60;99.90;;;;;;5011622;28;20048;-66
2023/10/21 07:27:46;;;;;;;0.20;0.20;;;11.70;99.90;;;;;;5005055;28;20041;-66
2023/10/21 07:30:12;;;;;;;3.85;0.77;;;11.70;99.90;;;;;;5008155;28;20053;-65
2023/10/21 07:32:38;;;;;;;0.20;0.20;;;11.80;99.90;;;;;;5003941;28;20144;-66
2023/10/21 07:35:04;;;;;;;0.00;0.00;;;11.80;99.90;;;;;;5004649;28;20116;-66
2023/10/21 07:37:30;;;;;;;0.10;0.10;;;11.80;99.90;;;;;;5002813;28;20052;-66
2023/10/21 07:39:59;;;;;;;0.25;0.25;;;11.80;99.90;;;;;;5009481;28;20034;-66
2023/10/21 07:42:25;;;;;;;0.10;0.10;;;11.90;99.90;;;;;;5005858;28;20433;-66
2023/10/21 07:44:52;;;;;;;0.20;0.20;;;11.90;99.90;;;;;;4999009;28;20047;-66
2023/10/21 07:47:18;;;;;;;0.43;0.43;;;11.90;99.90;;;;;;5002135;28;20132;-66
2023/10/21 07:49:44;;;;;;;0.20;0.20;;;12.00;99.90;;;;;;5009916;28;20145;-65
2023/10/21 07:52:10;;;;;;;0.40;0.40;;;12.00;99.90;;;;;;5006975;28;20041;-66
2023/10/21 07:54:37;;;;;;;0.22;0.22;;;12.00;99.90;;;;;;5007134;28;20049;-66
2023/10/21 07:57:04;;;;;;;0.20;0.20;;;12.10;99.90;;;;;;5007969;28;20133;-66
2023/10/21 07:59:30;;;;;;;0.10;0.10;;;12.20;99.90;;;;;;5001982;28;20077;-66
2023/10/21 08:01:55;;;;;;;0.35;0.35;;;12.20;99.90;;;;;;4999213;28;20081;-65
2023/10/21 08:04:21;;;;;;;0.20;0.20;;;12.20;99.90;;;;;;5009249;28;20198;-66
2023/10/21 08:06:46;;;;;;;0.10;0.10;;;12.30;99.90;;;;;;5005106;28;20042;-66
2023/10/21 08:09:16;;;;;;;0.30;0.30;;;12.30;99.90;;;;;;4997703;28;20042;-66
2023/10/21 08:11:43;;;;;;;0.03;0.03;;;12.40;99.90;;;;;;5008598;28;20482;-66
2023/10/21 08:14:10;;;;;;;0.00;0.00;;;12.40;99.90;;;;;;4997380;28;20060;-65
2023/10/21 08:16:36;;;;;;;0.10;0.10;;;12.40;99.90;;;;;;5000964;28;20049;-67
2023/10/21 08:19:02;;;;;;;0.38;0.38;;;12.50;99.90;;;;;;5026158;28;20054;-66
2023/10/21 08:21:28;;;;;;;6.57;1.55;;;12.50;99.90;;;;;;5009088;28;20092;-66
2023/10/21 08:23:53;;;;;;;0.00;0.00;;;12.50;99.90;;;;;;5000378;28;20084;-66
2023/10/21 08:26:19;;;;;;;0.20;0.20;;;12.60;99.90;;;;;;5009513;28;20038;-66
2023/10/21 08:28:45;;;;;;;0.25;0.25;;;12.60;99.90;;;;;;5004613;28;20062;-66
2023/10/21 08:31:10;;;;;;;0.13;0.13;;;12.70;99.90;;;;;;4999715;28;20065;-66
2023/10/21 08:33:36;;;;;;;0.03;0.03;;;12.70;99.90;;;;;;4994650;28;20041;-66
2023/10/21 08:36:01;;;;;;;0.25;0.25;;;12.80;99.90;;;;;;5007175;28;20038;-65
2023/10/21 08:38:27;;;;;;;0.30;0.30;;;12.80;99.90;;;;;;5009337;28;20540;-65
2023/10/21 08:40:53;;;;;;;0.32;0.32;;;12.90;99.90;;;;;;5000579;28;20117;-65
2023/10/21 08:43:19;;;;;;;0.82;0.82;;;12.90;99.90;;;;;;5002597;28;20045;-65
2023/10/21 08:45:46;;;;;;;0.15;0.13;;;12.90;99.90;;;;;;5007478;28;20050;-66
2023/10/21 08:48:12;;;;;;;0.32;0.32;;;12.90;99.90;;;;;;5007719;28;20060;-65
2023/10/21 08:50:39;;;;;;;0.28;0.28;;;12.90;99.90;;;;;;5003426;28;20478;-65
2023/10/21 08:53:13;;;;;;;0.10;0.10;;;13.00;99.90;;;;;;5000697;28;20112;-66
2023/10/21 08:55:39;;;;;;;0.20;0.20;;;13.00;99.90;;;;;;5005376;28;20053;-65
2023/10/21 08:58:06;;;;;;;0.28;0.28;;;13.10;99.90;;;;;;5001515;28;20505;-66
2023/10/21 09:00:33;;;;;;;0.15;0.15;;;13.20;99.90;;;;;;5001539;28;20723;-66
2023/10/21 09:02:58;;;;;;;0.63;0.63;;;13.20;99.90;;;;;;5005794;28;20584;-66
2023/10/21 09:05:24;;;;;;;1.15;1.10;;;13.20;99.90;;;;;;4998311;28;20046;-65
2023/10/21 09:07:50;;;;;;;1.08;0.47;;;13.30;99.90;;;;;;5001752;28;20976;-66
2023/10/21 09:10:20;;;;;;;0.10;0.10;;;13.40;99.90;;;;;;4999330;28;20046;-66
2023/10/21 09:12:46;;;;;;;0.20;0.20;;;13.40;99.90;;;;;;5007091;28;20060;-65
2023/10/21 09:15:12;;;;;;;1.08;0.75;;;13.50;99.90;;;;;;5004205;28;20042;-65
2023/10/21 09:17:39;;;;;;;0.30;0.30;;;13.50;99.90;;;;;;5005837;28;20064;-65
2023/10/21 09:20:10;;;;;;;0.25;0.25;;;13.60;99.90;;;;;;4998060;28;20445;-65
2023/10/21 09:22:37;;;;;;;0.40;0.38;;;13.70;99.90;;;;;;5002779;28;20138;-66
2023/10/21 09:25:16;;;;;;;0.20;0.20;;;13.80;99.90;;;;;;5017179;28;20093;-66
2023/10/21 09:27:46;;;;;;;0.20;0.20;;;13.90;99.90;;;;;;5007199;28;20042;-66
2023/10/21 09:30:17;;;;;;;0.20;0.20;;;14.00;99.90;;;;;;5008199;28;20143;-66
2023/10/21 09:32:43;;;;;;;0.10;0.10;;;14.10;99.90;;;;;;5000401;28;20061;-67
2023/10/21 09:35:27;;;;;;;0.15;0.15;;;14.00;99.90;;;;;;5001114;28;20046;-66
2023/10/21 09:37:53;;;;;;;0.20;0.20;;;14.00;99.90;;;;;;5009746;28;20037;-66
2023/10/21 09:40:21;;;;;;;0.38;0.38;;;14.00;99.90;;;;;;5000544;28;20491;-65
2023/10/21 09:42:49;;;;;;;0.10;0.10;;;14.00;99.90;;;;;;5000878;28;20127;-65
2023/10/21 09:45:16;;;;;;;0.03;0.03;;;14.00;99.90;;;;;;5007928;28;20046;-66
2023/10/21 09:47:42;;;;;;;1.05;0.90;;;13.90;99.90;;;;;;5005704;28;20521;-65
2023/10/21 09:50:15;;;;;;;0.30;0.30;;;13.90;99.90;;;;;;5004046;28;20043;-66
2023/10/21 09:52:52;;;;;;;0.43;0.43;;;13.90;99.90;;;;;;5008630;28;20050;-65
2023/10/21 09:55:24;;;;;;;0.50;0.50;;;13.80;99.90;;;;;;5007932;28;20038;-66
2023/10/21 09:57:52;;;;;;;0.25;0.25;;;13.80;99.90;;;;;;5005370;28;20486;-66
2023/10/21 10:00:19;;;;;;;0.10;0.10;;;13.80;99.90;;;;;;4996875;28;20049;-66
2023/10/21 10:02:50;;;;;;;0.28;0.28;;;13.80;99.90;;;;;;4998683;28;20058;-66
2023/10/21 10:05:20;;;;;;;0.20;0.20;;;13.80;99.90;;;;;;4999614;28;20058;-65
2023/10/21 10:07:47;;;;;;;0.10;0.10;;;13.70;99.90;;;;;;5012808;28;20057;-65
2023/10/21 10:10:15;;;;;;;0.10;0.10;;;13.70;99.90;;;;;;4995591;28;20050;-65
2023/10/21 10:12:44;;;;;;;0.17;0.17;;;13.70;99.90;;;;;;5002647;28;20041;-66
2023/10/21 10:15:27;;;;;;;0.00;0.00;;;13.70;99.90;;;;;;5005786;28;20061;-66
2023/10/21 10:17:53;;;;;;;6.15;2.65;;;13.70;99.90;;;;;;5001521;28;20049;-65
2023/10/21 10:20:25;;;;;;;0.52;0.30;;;13.60;99.90;;;;;;4997731;28;20042;-66
2023/10/21 10:23:00;;;;;;;0.10;0.10;;;13.60;99.90;;;;;;4999591;28;20115;-66
2023/10/21 10:25:31;;;;;;;0.40;0.28;;;13.60;99.90;;;;;;5012600;28;20059;-66
2023/10/21 10:28:04;;;;;;;0.25;0.25;;;13.60;99.90;;;;;;5005543;28;20054;-66
2023/10/21 10:30:31;;;;;;;0.10;0.10;;;13.50;99.90;;;;;;5002883;28;20406;-66
2023/10/21 10:33:06;;;;;;;1.17;1.13;;;13.50;99.90;;;;;;5011532;28;20050;-66
2023/10/21 10:35:34;;;;;;;0.22;0.22;;;13.50;99.90;;;;;;4997227;28;20085;-65
2023/10/21 10:38:00;;;;;;;0.85;0.85;;;13.60;99.90;;;;;;5012052;28;20049;-66
2023/10/21 10:40:41;;;;;;;0.10;0.10;;;13.60;99.90;;;;;;5010570;28;20058;-66
2023/10/21 10:43:16;;;;;;;0.10;0.10;;;13.60;99.90;;;;;;5001622;28;20206;-66
2023/10/21 10:45:42;;;;;;;0.20;0.20;;;13.60;99.90;;;;;;5008085;28;20049;-65
2023/10/21 10:48:08;;;;;;;0.10;0.10;;;13.60;99.90;;;;;;5009639;28;20041;-66
2023/10/21 10:50:38;;;;;;;0.20;0.20;;;13.60;99.90;;;;;;5008919;28;20049;-67
2023/10/21 10:53:17;;;;;;;0.10;0.10;;;13.60;99.90;;;;;;4995095;28;20119;-65
2023/10/21 10:55:47;;;;;;;1.33;1.23;;;13.60;99.90;;;;;;5008807;28;20041;-66
2023/10/21 10:58:15;;;;;;;0.20;0.20;;;13.50;99.90;;;;;;5000842;28;20054;-66
2023/10/21 11:00:41;;;;;;;0.30;0.30;;;13.50;99.90;;;;;;4998815;28;20041;-65
2023/10/21 11:03:07;;;;;;;0.00;0.00;;;13.50;99.90;;;;;;5007484;28;20045;-66
2023/10/21 11:05:35;;;;;;;0.30;0.30;;;13.60;99.90;;;;;;5008615;28;20124;-65
2023/10/21 11:08:00;;;;;;;0.00;0.00;;;13.60;99.90;;;;;;5001996;28;20469;-65
2023/10/21 11:10:26;;;;;;;0.00;0.00;;;13.60;99.90;;;;;;5008336;28;20077;-65
2023/10/21 11:12:52;;;;;;;0.03;0.03;;;13.70;99.90;;;;;;5010587;28;20486;-66
2023/10/21 11:15:19;;;;;;;0.10;0.10;;;13.70;99.90;;;;;;5002353;28;20060;-65
2023/10/21 11:17:47;;;;;;;0.10;0.10;;;13.80;99.90;;;;;;5005613;28;20046;-65
2023/10/21 11:20:13;;;;;;;0.10;0.10;;;14.00;99.90;;;;;;5005973;28;20051;-65
2023/10/21 11:22:39;;;;;;;0.52;0.52;;;14.10;99.90;;;;;;5002153;28;20487;-66
2023/10/21 11:25:06;;;;;;;0.00;0.00;;;14.10;99.90;;;;;;5006172;28;20056;-66
2023/10/21 11:27:32;;;;;;;0.10;0.10;;;14.20;99.90;;;;;;5001976;28;20116;-67
2023/10/21 11:29:59;;;;;;;0.00;0.00;;;14.20;99.90;;;;;;5009187;28;20679;-66
2023/10/21 11:32:30;;;;;;;0.38;0.32;;;14.10;99.90;;;;;;5007857;28;20524;-67
2023/10/21 11:35:01;;;;;;;0.10;0.10;;;14.10;99.90;;;;;;5009459;28;20054;-65
2023/10/21 11:37:27;;;;;;;0.00;0.00;;;14.00;99.90;;;;;;5001176;28;20034;-66
2023/10/21 11:39:53;;;;;;;0.40;0.22;;;14.00;99.90;;;;;;5010058;28;20103;-65
2023/10/21 11:42:18;;;;;;;0.05;0.05;;;14.00;99.90;;;;;;5002691;28;20409;-66
2023/10/21 11:44:55;;;;;;;0.00;0.00;;;13.90;99.90;;;;;;4996325;28;20042;-65
2023/10/21 11:47:28;;;;;;;0.00;0.00;;;13.90;99.90;;;;;;5019896;28;20045;-66
2023/10/21 11:49:55;;;;;;;0.13;0.13;;;13.80;99.90;;;;;;5006872;28;20054;-65
2023/10/21 11:52:21;;;;;;;0.00;0.00;;;13.80;99.90;;;;;;5004969;28;20814;-65
2023/10/21 11:55:22;;;;;;;0.10;0.10;;;13.80;99.90;;;;;;5009262;28;20042;-65
2023/10/21 12:16:25;;;;;;;0.35;0.30;;;14.20;99.90;;;;;;5001771;28;19957;-65
2023/10/21 12:19:24;;;;;;;0.10;0.10;;;14.20;99.90;;;;;;5006864;28;20054;-65
2023/10/21 12:40:31;;;;;;;0.10;0.10;;;17.20;99.90;;;;;;5000439;28;20054;-65
2023/10/21 12:45:47;;;;;;;;;;;17.20;99.90;;;;;;5020336;28;20085;-65
2023/10/21 12:48:14;;;;;;;0.05;0.05;;;16.80;99.90;;;;;;5003704;28;19965;-66
2023/10/21 12:50:40;;;;;;;0.10;0.10;;;16.60;99.90;;;;;;5003000;28;20375;-65
2023/10/21 12:53:08;;;;;;;0.20;0.20;;;16.40;99.90;;;;;;4999630;28;20406;-65
2023/10/21 12:55:35;;;;;;;0.03;0.03;;;16.10;99.90;;;;;;5002638;28;20046;-66
2023/10/21 12:58:01;;;;;;;0.30;0.30;;;15.90;99.90;;;;;;5000955;28;20054;-65
2023/10/21 13:00:27;;;;;;;0.20;0.20;;;15.60;99.90;;;;;;5007713;28;20386;-65
2023/10/21 13:02:53;;;;;;;0.08;0.08;;;15.40;99.90;;;;;;5002128;28;20046;-65
2023/10/21 13:05:19;;;;;;;0.10;0.10;;;15.30;99.90;;;;;;5001384;28;20037;-64
2023/10/21 13:07:44;;;;;;;0.10;0.10;;;15.20;99.90;;;;;;5006421;28;20052;-65
2023/10/21 13:10:10;;;;;;;5.05;3.40;;;15.10;99.90;;;;;;5008269;28;20049;-64
2023/10/21 13:12:39;;;;;;;0.00;0.00;;;15.00;99.90;;;;;;5002959;28;20128;-65
2023/10/21 13:15:11;;;;;;;0.10;0.10;;;14.90;99.90;;;;;;5005320;28;20034;-65
2023/10/21 13:17:41;;;;;;;0.10;0.10;;;14.80;99.90;;;;;;5005406;28;20258;-64
2023/10/21 13:20:16;;;;;;;0.00;0.00;;;14.80;99.90;;;;;;4994958;28;20046;-65
2023/10/21 13:22:45;;;;;;;0.30;0.30;;;14.80;99.90;;;;;;4992999;28;20042;-66
2023/10/21 13:25:13;;;;;;;0.03;0.03;;;14.80;99.90;;;;;;5006802;28;20049;-66
2023/10/21 13:27:42;;;;;;;0.50;0.43;;;14.80;99.90;;;;;;5006889;28;20172;-66